Main page
METAR-TAF:

METAR-TAF

Airports :

Ilorin International Airport

Ilorin, Nigeria

latitude: 08-29N, longitude: 004-35E, elevation: 308 m

Current weather observation

The report was made 1 hour and 45 minutes ago, at 20:00 UTC
Wind 5 kt from the North/Northeast
Temperature 32°C
Humidity 23%
Pressure 1008 hPa
Visibility 10 km or more
no clouds below 1500 m and no cumulonimbus

METAR: DNIL 042000Z 02005KT CAVOK 32/08 Q1008

Time: 22:45 (21:45 UTC)

Forecast

The report was made 4 hours and 45 minutes ago, at 17:00 UTC
Forecast valid from 04 at 18 UTC to 05 at 24 UTC
Wind kt from the North
Visibility 10 km or more
no clouds below 1500 m and no cumulonimbus
Temporary
from 04 at 20 UTC to 04 at 24 UTC
Wind 7 kt from the South/Southeast

TAF: DNIL 041700Z 0418/0524 00000KT CAVOK TEMPO 0420/0424 16007KT

Weather observations and forecasts of more than 4000 airports (METAR and TAF reports).

The available stations are represented by yellow and red dots on the map.

Hover mouse over dot to see the name of the station.

Then click to see weather observations and forecasts.

To change the map : click on the green buttons with a black cross to zoom in, on the green button with a dash to zoom out, or on the green arrows for adjacent maps.


METAR-TAF: